Time;durP1;ratioP1;P1;durP2;ratioP2;P2;SDS_P1;SDS_P2;PMS_P1;PMS_P2;Temp;Humidity;BMP_temperature;BMP_pressure;BME280_temperature;BME280_humidity;BME280_pressure;Samples;Min_cycle;Max_cycle;Signal;HPM_P1;HPM_P2
2023/09/26 00:02:25;;;;;;;40.58;18.90;;;;;;;;;;5137633;27;20305;-67
2023/09/26 00:04:51;;;;;;;41.67;20.58;;;;;;;;;;5137118;27;20549;-68
2023/09/26 00:07:17;;;;;;;44.50;21.05;;;;;;;;;;5137493;27;20049;-67
2023/09/26 00:09:44;;;;;;;47.27;20.87;;;;;;;;;;5137965;27;20047;-71
2023/09/26 00:12:11;;;;;;;43.17;20.70;;;;;;;;;;5119494;27;20057;-67
2023/09/26 00:14:37;;;;;;;57.25;20.75;;;;;;;;;;5137464;27;20104;-68
2023/09/26 00:17:05;;;;;;;44.47;20.55;;;;;;;;;;5137806;27;20053;-68
2023/09/26 00:19:31;;;;;;;40.60;20.00;;;;;;;;;;5136935;27;20126;-69
2023/09/26 00:21:57;;;;;;;43.20;20.17;;;;;;;;;;5137331;27;20088;-67
2023/09/26 00:24:23;;;;;;;45.37;20.63;;;;;;;;;;5137168;27;20116;-67
2023/09/26 00:26:49;;;;;;;43.10;20.37;;;;;;;;;;5137679;27;20104;-68
2023/09/26 00:29:15;;;;;;;42.40;20.70;;;;;;;;;;5137263;27;20051;-66
2023/09/26 00:31:42;;;;;;;40.37;20.37;;;;;;;;;;5118745;27;20371;-67
2023/09/26 00:34:08;;;;;;;35.83;19.43;;;;;;;;;;5136943;27;20067;-67
2023/09/26 00:36:34;;;;;;;49.17;20.00;;;;;;;;;;5137082;27;20047;-68
2023/09/26 00:39:00;;;;;;;41.35;20.35;;;;;;;;;;5136963;27;20053;-67
2023/09/26 00:41:26;;;;;;;38.15;19.52;;;;;;;;;;5136981;27;20433;-67
2023/09/26 00:43:52;;;;;;;41.57;19.87;;;;;;;;;;5137599;27;20043;-69
2023/09/26 00:46:19;;;;;;;40.80;19.67;;;;;;;;;;5119565;27;20352;-68
2023/09/26 00:48:45;;;;;;;42.25;20.27;;;;;;;;;;5136821;27;20039;-68
2023/09/26 00:51:11;;;;;;;37.38;19.80;;;;;;;;;;5136913;27;20075;-67
2023/09/26 00:53:39;;;;;;;37.42;19.15;;;;;;;;;;5118436;27;20049;-67
2023/09/26 00:56:05;;;;;;;40.28;19.65;;;;;;;;;;5135332;27;20047;-68
2023/09/26 00:58:32;;;;;;;38.42;19.30;;;;;;;;;;5136711;27;20051;-67
2023/09/26 01:00:59;;;;;;;40.55;20.48;;;;;;;;;;5136418;27;20051;-67
2023/09/26 01:03:25;;;;;;;36.92;19.45;;;;;;;;;;5136218;27;20039;-71
2023/09/26 01:05:51;;;;;;;41.53;19.43;;;;;;;;;;5136891;27;20046;-68
2023/09/26 01:08:17;;;;;;;40.90;19.92;;;;;;;;;;5136912;27;20039;-68
2023/09/26 01:10:45;;;;;;;40.08;19.25;;;;;;;;;;5118283;27;20051;-67
2023/09/26 01:13:11;;;;;;;36.80;18.85;;;;;;;;;;5118377;27;20049;-68
2023/09/26 01:15:42;;;;;;;37.90;19.15;;;;;;;;;;5136616;27;20039;-68
2023/09/26 01:18:15;;;;;;;35.90;18.13;;;;;;;;;;5136725;27;20054;-68
2023/09/26 01:20:45;;;;;;;41.70;19.20;;;;;;;;;;5136198;27;20047;-66
2023/09/26 01:23:14;;;;;;;36.95;18.52;;;;;;;;;;5136587;27;20051;-68
2023/09/26 01:25:40;;;;;;;34.58;18.63;;;;;;;;;;5117630;27;20104;-67
2023/09/26 01:28:07;;;;;;;40.00;19.00;;;;;;;;;;5117938;27;20084;-67
2023/09/26 01:30:38;;;;;;;40.80;19.45;;;;;;;;;;5100715;27;20125;-67
2023/09/26 01:33:08;;;;;;;37.95;18.15;;;;;;;;;;5118638;27;20047;-68
2023/09/26 01:35:34;;;;;;;39.65;18.98;;;;;;;;;;5117612;27;20383;-67
2023/09/26 01:38:00;;;;;;;39.08;18.15;;;;;;;;;;5136304;27;20082;-67
2023/09/26 01:40:27;;;;;;;37.15;18.63;;;;;;;;;;5117774;27;20047;-68
2023/09/26 01:42:53;;;;;;;37.40;18.77;;;;;;;;;;5117326;27;20047;-67
2023/09/26 01:45:19;;;;;;;35.35;18.83;;;;;;;;;;5136334;27;20143;-69
2023/09/26 01:47:49;;;;;;;41.87;18.70;;;;;;;;;;5117441;27;20082;-68
2023/09/26 01:50:15;;;;;;;40.47;18.95;;;;;;;;;;5117123;27;20047;-68
2023/09/26 01:52:42;;;;;;;35.28;18.40;;;;;;;;;;5117578;27;20100;-67
2023/09/26 01:55:09;;;;;;;36.88;18.23;;;;;;;;;;5135648;27;20471;-67
2023/09/26 01:57:35;;;;;;;;;;;;;;;;;;5135957;27;20145;-67
2023/09/26 02:00:05;;;;;;;36.75;17.20;;;;;;;;;;5135940;27;19970;-71
2023/09/26 02:02:31;;;;;;;32.65;17.60;;;;;;;;;;5135897;27;20375;-67
2023/09/26 02:04:57;;;;;;;35.13;17.35;;;;;;;;;;5116871;27;20402;-68
2023/09/26 02:07:23;;;;;;;35.20;17.40;;;;;;;;;;5135583;27;20395;-67
2023/09/26 02:09:49;;;;;;;32.00;16.42;;;;;;;;;;5100443;27;20471;-67
2023/09/26 02:12:16;;;;;;;31.33;16.52;;;;;;;;;;5135101;27;20047;-70
2023/09/26 02:14:42;;;;;;;36.47;18.30;;;;;;;;;;5135116;27;20418;-67
2023/09/26 02:17:10;;;;;;;36.33;17.83;;;;;;;;;;5116696;27;20084;-67
2023/09/26 02:19:36;;;;;;;41.10;18.90;;;;;;;;;;5117650;27;20043;-67
2023/09/26 02:22:02;;;;;;;39.00;19.37;;;;;;;;;;5135170;27;20495;-67
2023/09/26 02:24:28;;;;;;;40.63;18.23;;;;;;;;;;5135307;27;20344;-68
2023/09/26 02:26:58;;;;;;;33.30;17.88;;;;;;;;;;5135472;27;20299;-68
2023/09/26 02:29:24;;;;;;;34.55;18.83;;;;;;;;;;5116631;27;20047;-67
2023/09/26 02:31:50;;;;;;;34.38;17.80;;;;;;;;;;5134833;27;20043;-68
2023/09/26 02:34:16;;;;;;;33.97;17.27;;;;;;;;;;5134609;27;20194;-67
2023/09/26 02:36:42;;;;;;;32.65;17.40;;;;;;;;;;5100029;27;20043;-67
2023/09/26 02:39:08;;;;;;;34.88;16.40;;;;;;;;;;5134670;27;20058;-69
2023/09/26 02:41:34;;;;;;;34.20;17.77;;;;;;;;;;5116459;27;20126;-67
2023/09/26 02:44:03;;;;;;;29.73;16.23;;;;;;;;;;5134578;27;20088;-67
2023/09/26 02:46:29;;;;;;;32.42;17.17;;;;;;;;;;5134499;27;20047;-68
2023/09/26 02:48:55;;;;;;;29.35;17.40;;;;;;;;;;5134923;27;20043;-68
2023/09/26 02:51:21;;;;;;;33.70;16.03;;;;;;;;;;5134495;27;20128;-67
2023/09/26 02:53:47;;;;;;;27.17;15.43;;;;;;;;;;5116231;27;20057;-69
2023/09/26 02:56:13;;;;;;;27.45;16.05;;;;;;;;;;5116685;28;20403;-67
2023/09/26 02:58:39;;;;;;;32.92;16.23;;;;;;;;;;5134544;27;20040;-68
2023/09/26 03:01:05;;;;;;;27.35;16.20;;;;;;;;;;5134195;27;20610;-68
2023/09/26 03:03:31;;;;;;;30.65;15.52;;;;;;;;;;5116907;28;20035;-67
2023/09/26 03:05:59;;;;;;;31.02;15.55;;;;;;;;;;5099987;28;20043;-67
2023/09/26 03:08:25;;;;;;;25.95;15.35;;;;;;;;;;5134092;28;20047;-70
2023/09/26 03:10:51;;;;;;;30.85;15.30;;;;;;;;;;5134231;28;20080;-68
2023/09/26 03:13:17;;;;;;;32.88;17.52;;;;;;;;;;5134141;28;20043;-68
2023/09/26 03:15:43;;;;;;;34.27;16.23;;;;;;;;;;5134263;28;20047;-69
2023/09/26 03:18:09;;;;;;;29.77;16.60;;;;;;;;;;5116989;27;20049;-66
2023/09/26 03:20:39;;;;;;;28.75;15.55;;;;;;;;;;5138918;27;20043;-67
2023/09/26 03:23:05;;;;;;;29.55;16.25;;;;;;;;;;5138495;27;20047;-68
2023/09/26 03:25:32;;;;;;;29.80;16.27;;;;;;;;;;5120004;27;20047;-67
2023/09/26 03:28:03;;;;;;;30.17;16.80;;;;;;;;;;5138729;27;20051;-68
2023/09/26 03:30:30;;;;;;;30.48;16.52;;;;;;;;;;5103130;27;20047;-67
2023/09/26 03:32:56;;;;;;;27.55;16.73;;;;;;;;;;5120018;27;20039;-67
2023/09/26 03:35:22;;;;;;;27.92;16.50;;;;;;;;;;5120554;27;20364;-67
2023/09/26 03:37:48;;;;;;;25.98;15.68;;;;;;;;;;5138315;27;20049;-67
2023/09/26 03:40:14;;;;;;;27.47;16.13;;;;;;;;;;5120105;27;20143;-67
2023/09/26 03:42:40;;;;;;;27.67;15.60;;;;;;;;;;5138003;27;20157;-67
2023/09/26 03:45:08;;;;;;;27.58;15.02;;;;;;;;;;5120291;27;20047;-68
2023/09/26 03:47:35;;;;;;;27.70;16.33;;;;;;;;;;5120657;27;20047;-67
2023/09/26 03:50:01;;;;;;;27.13;15.95;;;;;;;;;;5137949;27;20042;-68
2023/09/26 03:52:28;;;;;;;29.40;16.35;;;;;;;;;;5137918;27;20047;-67
2023/09/26 03:54:54;;;;;;;28.38;15.95;;;;;;;;;;5137776;27;20047;-67
2023/09/26 03:57:20;;;;;;;27.60;15.75;;;;;;;;;;5138346;27;20043;-68
2023/09/26 03:59:49;;;;;;;29.13;16.35;;;;;;;;;;5137788;27;20054;-67
2023/09/26 04:02:16;;;;;;;33.00;17.65;;;;;;;;;;5137218;27;20558;-67
2023/09/26 04:04:42;;;;;;;33.95;16.95;;;;;;;;;;5120427;27;20117;-68
2023/09/26 04:07:08;;;;;;;30.15;17.55;;;;;;;;;;5119464;27;20490;-67
2023/09/26 04:09:35;;;;;;;31.27;17.35;;;;;;;;;;5120086;27;20395;-66
2023/09/26 04:12:01;;;;;;;32.65;17.95;;;;;;;;;;5137552;27;20078;-67
2023/09/26 04:14:27;;;;;;;33.42;18.85;;;;;;;;;;5138089;27;20356;-67
2023/09/26 04:16:54;;;;;;;32.80;18.10;;;;;;;;;;5137409;27;20047;-68
2023/09/26 04:19:20;;;;;;;29.10;18.33;;;;;;;;;;5138009;27;20054;-66
2023/09/26 04:21:46;;;;;;;29.88;17.13;;;;;;;;;;5137260;27;20047;-68
2023/09/26 04:24:12;;;;;;;31.77;17.83;;;;;;;;;;5118858;27;20398;-68
2023/09/26 04:26:38;;;;;;;31.23;18.73;;;;;;;;;;5114968;28;20546;-69
2023/09/26 04:29:05;;;;;;;34.77;18.33;;;;;;;;;;5116646;28;20375;-66
2023/09/26 04:31:31;;;;;;;35.03;19.17;;;;;;;;;;5116517;28;20051;-67
2023/09/26 04:33:57;;;;;;;30.77;17.98;;;;;;;;;;5117071;28;20043;-68
2023/09/26 04:36:23;;;;;;;31.77;17.83;;;;;;;;;;5115249;28;20043;-68
2023/09/26 04:38:49;;;;;;;29.10;17.83;;;;;;;;;;5115975;28;20079;-67
2023/09/26 04:41:16;;;;;;;30.15;18.13;;;;;;;;;;5115329;28;20058;-67
2023/09/26 04:43:42;;;;;;;30.35;17.70;;;;;;;;;;5116213;28;20047;-67
2023/09/26 04:46:12;;;;;;;30.63;18.73;;;;;;;;;;5098443;28;20097;-68
2023/09/26 04:48:39;;;;;;;29.25;18.05;;;;;;;;;;5114848;28;20289;-67
2023/09/26 04:51:12;;;;;;;33.72;17.83;;;;;;;;;;5115047;28;20093;-67
2023/09/26 04:53:38;;;;;;;31.17;17.83;;;;;;;;;;5115264;28;20044;-68
2023/09/26 04:56:04;;;;;;;33.63;18.23;;;;;;;;;;5115026;28;20043;-68
2023/09/26 04:58:32;;;;;;;30.50;17.73;;;;;;;;;;5116093;28;20048;-67
2023/09/26 05:01:02;;;;;;;29.60;16.58;;;;;;;;;;5116052;28;20071;-67
2023/09/26 05:03:29;;;;;;;31.77;17.23;;;;;;;;;;5115887;28;20126;-70
2023/09/26 05:05:55;;;;;;;30.42;17.67;;;;;;;;;;5115964;28;20040;-67
2023/09/26 05:08:21;;;;;;;28.17;17.65;;;;;;;;;;5115847;28;20180;-67
2023/09/26 05:10:49;;;;;;;26.73;17.17;;;;;;;;;;5115644;28;20047;-68
2023/09/26 05:13:15;;;;;;;27.50;16.90;;;;;;;;;;5115593;28;20092;-67
2023/09/26 05:15:41;;;;;;;27.88;16.52;;;;;;;;;;5114326;28;20050;-66
2023/09/26 05:18:07;;;;;;;31.23;17.10;;;;;;;;;;5114475;28;20042;-67
2023/09/26 05:20:34;;;;;;;33.92;17.17;;;;;;;;;;5115371;28;20101;-67
2023/09/26 05:23:00;;;;;;;30.13;17.48;;;;;;;;;;5097583;28;20127;-67
2023/09/26 05:25:27;;;;;;;28.73;16.50;;;;;;;;;;5098078;28;20548;-67
2023/09/26 05:27:53;;;;;;;30.65;17.70;;;;;;;;;;5134002;27;20063;-68
2023/09/26 05:30:19;;;;;;;30.40;17.33;;;;;;;;;;5136122;27;20039;-67
2023/09/26 05:32:45;;;;;;;28.85;17.45;;;;;;;;;;5118160;27;20134;-67
2023/09/26 05:35:12;;;;;;;33.35;18.15;;;;;;;;;;5135654;27;20551;-68
2023/09/26 05:37:38;;;;;;;26.50;16.55;;;;;;;;;;5117199;27;20126;-67
2023/09/26 05:40:09;;;;;;;33.13;18.15;;;;;;;;;;5135603;27;20047;-66
2023/09/26 05:42:39;;;;;;;30.52;17.55;;;;;;;;;;5135815;27;20051;-71
2023/09/26 05:45:06;;;;;;;31.98;17.50;;;;;;;;;;5117061;27;20084;-68
2023/09/26 05:47:32;;;;;;;29.83;16.00;;;;;;;;;;5135871;27;20052;-68
2023/09/26 05:49:58;;;;;;;27.42;15.25;;;;;;;;;;5117212;27;20395;-67
2023/09/26 05:52:24;;;;;;;27.73;16.05;;;;;;;;;;5135341;27;20440;-67
2023/09/26 05:54:50;;;;;;;27.65;15.85;;;;;;;;;;5135279;27;20072;-67
2023/09/26 05:57:17;;;;;;;29.58;15.65;;;;;;;;;;5117198;27;20089;-67
2023/09/26 05:59:43;;;;;;;28.17;16.00;;;;;;;;;;5116865;27;20143;-68
2023/09/26 06:02:11;;;;;;;29.67;16.38;;;;;;;;;;5135776;27;20050;-68
2023/09/26 06:04:41;;;;;;;29.05;15.20;;;;;;;;;;5135424;27;20046;-68
2023/09/26 06:07:07;;;;;;;25.38;15.95;;;;;;;;;;5116884;27;20158;-67
2023/09/26 06:09:33;;;;;;;27.98;15.73;;;;;;;;;;5135626;27;20117;-67
2023/09/26 06:11:59;;;;;;;28.83;15.20;;;;;;;;;;5135016;27;20099;-68
2023/09/26 06:14:25;;;;;;;27.55;15.05;;;;;;;;;;5135260;27;20043;-67
2023/09/26 06:16:51;;;;;;;26.77;14.82;;;;;;;;;;5116636;27;20100;-66
2023/09/26 06:19:17;;;;;;;32.42;15.68;;;;;;;;;;5134525;27;20046;-67
2023/09/26 06:21:43;;;;;;;28.90;14.93;;;;;;;;;;5134846;27;20051;-69
2023/09/26 06:24:09;;;;;;;28.98;15.38;;;;;;;;;;5134734;27;20142;-67
2023/09/26 06:26:35;;;;;;;30.90;15.88;;;;;;;;;;5116401;27;20051;-66
2023/09/26 06:29:02;;;;;;;27.70;15.68;;;;;;;;;;5135117;27;20123;-68
2023/09/26 06:31:28;;;;;;;27.35;14.57;;;;;;;;;;5134764;27;20386;-68
2023/09/26 06:33:56;;;;;;;29.92;16.17;;;;;;;;;;5134534;27;20130;-67
2023/09/26 06:36:22;;;;;;;29.58;15.23;;;;;;;;;;5135370;27;20462;-66
2023/09/26 06:38:48;;;;;;;25.37;14.87;;;;;;;;;;5116222;27;20046;-66
2023/09/26 06:41:14;;;;;;;26.70;14.87;;;;;;;;;;5134569;27;20061;-67
2023/09/26 06:43:40;;;;;;;26.23;14.55;;;;;;;;;;5134489;27;20297;-67
2023/09/26 06:46:08;;;;;;;27.33;14.88;;;;;;;;;;5116851;27;20450;-68
2023/09/26 06:48:38;;;;;;;26.88;14.98;;;;;;;;;;5134944;27;20043;-66
2023/09/26 06:51:04;;;;;;;28.38;15.85;;;;;;;;;;5100339;27;20504;-67
2023/09/26 06:53:31;;;;;;;29.83;15.30;;;;;;;;;;5133489;27;20039;-66
2023/09/26 06:56:15;;;;;;;26.60;15.48;;;;;;;;;;5134371;27;20039;-67
2023/09/26 06:58:41;;;;;;;28.75;15.75;;;;;;;;;;5134785;27;20051;-67
2023/09/26 07:01:14;;;;;;;23.45;14.90;;;;;;;;;;5116469;27;20115;-67
2023/09/26 07:03:41;;;;;;;28.55;14.90;;;;;;;;;;5115983;28;20039;-68
2023/09/26 07:06:11;;;;;;;31.08;15.68;;;;;;;;;;5134281;28;20076;-67
2023/09/26 07:08:38;;;;;;;29.10;16.05;;;;;;;;;;5134278;28;20047;-67
2023/09/26 07:11:04;;;;;;;29.98;15.98;;;;;;;;;;5116729;28;20126;-67
2023/09/26 07:13:30;;;;;;;31.80;14.93;;;;;;;;;;5134785;28;20043;-68
2023/09/26 07:16:00;;;;;;;27.33;15.00;;;;;;;;;;5098740;28;20051;-67
2023/09/26 07:18:26;;;;;;;28.73;15.70;;;;;;;;;;5134025;28;20047;-67
2023/09/26 07:20:53;;;;;;;30.87;15.97;;;;;;;;;;5134001;28;20054;-67
2023/09/26 07:23:19;;;;;;;29.38;15.48;;;;;;;;;;5099233;28;20043;-67
2023/09/26 07:25:45;;;;;;;25.85;15.38;;;;;;;;;;5115726;28;20458;-66
2023/09/26 07:28:11;;;;;;;29.70;15.83;;;;;;;;;;5115927;28;20051;-67
2023/09/26 07:30:38;;;;;;;27.57;15.10;;;;;;;;;;5134006;28;20047;-67
2023/09/26 07:33:04;;;;;;;27.50;15.90;;;;;;;;;;5115737;28;20066;-67
2023/09/26 07:35:30;;;;;;;25.83;15.52;;;;;;;;;;5115967;28;20059;-66
2023/09/26 07:37:57;;;;;;;26.35;15.63;;;;;;;;;;5115629;28;20394;-68
2023/09/26 07:40:23;;;;;;;;;;;;;;;;;;5134524;28;20130;-67
2023/09/26 07:42:49;;;;;;;29.52;15.82;;;;;;;;;;5133839;28;19970;-67
2023/09/26 07:45:16;;;;;;;25.58;15.15;;;;;;;;;;5115684;28;20047;-67
2023/09/26 07:47:42;;;;;;;;;;;;;;;;;;5134043;28;20540;-66
2023/09/26 07:50:09;;;;;;;29.45;15.60;;;;;;;;;;5115510;28;19965;-67
2023/09/26 07:52:35;;;;;;;26.93;15.07;;;;;;;;;;5115622;28;20039;-67
2023/09/26 07:55:01;;;;;;;29.10;15.10;;;;;;;;;;5134179;28;20107;-68
2023/09/26 07:57:27;;;;;;;26.30;15.10;;;;;;;;;;5115612;28;20281;-67
2023/09/26 07:59:54;;;;;;;30.25;16.33;;;;;;;;;;5115582;28;20043;-67
2023/09/26 08:02:20;;;;;;;28.40;15.90;;;;;;;;;;5133329;28;20039;-68
2023/09/26 08:04:47;;;;;;;31.45;15.23;;;;;;;;;;5135642;27;20047;-68
2023/09/26 08:07:13;;;;;;;28.02;15.25;;;;;;;;;;5137254;27;20155;-67
2023/09/26 08:09:40;;;;;;;24.20;15.02;;;;;;;;;;5137863;27;20047;-68
2023/09/26 08:12:06;;;;;;;29.15;14.65;;;;;;;;;;5137680;27;20141;-68
2023/09/26 08:14:33;;;;;;;27.20;15.17;;;;;;;;;;5138307;27;20076;-67
2023/09/26 08:16:59;;;;;;;25.00;15.02;;;;;;;;;;5119125;27;20055;-71
2023/09/26 08:19:26;;;;;;;27.03;14.93;;;;;;;;;;5137669;27;20461;-68
2023/09/26 08:21:52;;;;;;;28.50;14.98;;;;;;;;;;5119066;27;20520;-69
2023/09/26 08:24:18;;;;;;;30.92;15.18;;;;;;;;;;5119615;27;20150;-67
2023/09/26 08:26:44;;;;;;;25.67;14.70;;;;;;;;;;5136923;27;20059;-67
2023/09/26 08:29:10;;;;;;;26.37;14.77;;;;;;;;;;5137040;27;20444;-69
2023/09/26 08:31:36;;;;;;;31.92;15.30;;;;;;;;;;5119109;27;20459;-66
2023/09/26 08:34:03;;;;;;;25.93;15.53;;;;;;;;;;5137080;27;20039;-68
2023/09/26 08:36:30;;;;;;;30.00;15.48;;;;;;;;;;5119288;27;20050;-67
2023/09/26 08:38:56;;;;;;;33.80;16.38;;;;;;;;;;5119003;27;20051;-68
2023/09/26 08:41:24;;;;;;;34.05;17.10;;;;;;;;;;5119484;27;20043;-67
2023/09/26 08:43:50;;;;;;;29.27;15.52;;;;;;;;;;5136794;27;20039;-68
2023/09/26 08:46:17;;;;;;;29.67;15.30;;;;;;;;;;5137341;27;20043;-68
2023/09/26 08:48:43;;;;;;;;;;;;;;;;;;5137322;27;20051;-66
2023/09/26 08:51:10;;;;;;;29.58;16.60;;;;;;;;;;5136676;27;19925;-66
2023/09/26 08:53:36;;;;;;;;;;;;;;;;;;5137388;27;20126;-67
2023/09/26 08:56:02;;;;;;;37.28;15.65;;;;;;;;;;5118609;27;19970;-71
2023/09/26 08:58:31;;;;;;;32.65;16.55;;;;;;;;;;5136224;27;20518;-67
2023/09/26 09:00:57;;;;;;;32.00;16.25;;;;;;;;;;5136837;27;20043;-68
2023/09/26 09:03:23;;;;;;;31.20;16.80;;;;;;;;;;5118156;27;20384;-69
2023/09/26 09:05:49;;;;;;;29.77;15.83;;;;;;;;;;5118125;27;20050;-67
2023/09/26 09:08:19;;;;;;;32.87;17.03;;;;;;;;;;5101203;27;20142;-68
2023/09/26 09:10:49;;;;;;;31.63;16.75;;;;;;;;;;5136906;27;20280;-68
2023/09/26 09:13:26;;;;;;;34.35;16.75;;;;;;;;;;5135882;27;20039;-68
2023/09/26 09:15:52;;;;;;;36.25;16.50;;;;;;;;;;5117926;27;20043;-66
2023/09/26 09:18:30;;;;;;;32.65;16.02;;;;;;;;;;5117985;27;20047;-68
2023/09/26 09:20:56;;;;;;;37.20;17.45;;;;;;;;;;5136206;27;20054;-67
2023/09/26 09:23:22;;;;;;;31.70;16.23;;;;;;;;;;5135665;27;20043;-68
2023/09/26 09:25:50;;;;;;;32.13;15.70;;;;;;;;;;5117674;27;20463;-66
2023/09/26 09:28:20;;;;;;;37.60;17.50;;;;;;;;;;5136223;27;20394;-68
2023/09/26 09:30:46;;;;;;;36.92;16.75;;;;;;;;;;5117817;27;20058;-68
2023/09/26 09:33:16;;;;;;;41.67;17.83;;;;;;;;;;5135800;27;20039;-67
2023/09/26 09:35:43;;;;;;;34.53;16.25;;;;;;;;;;5136416;27;20043;-66
2023/09/26 09:38:12;;;;;;;36.78;17.13;;;;;;;;;;5135721;27;20062;-71
2023/09/26 09:40:38;;;;;;;34.75;16.88;;;;;;;;;;5135731;27;20043;-67
2023/09/26 09:43:05;;;;;;;37.80;17.48;;;;;;;;;;5100648;27;20046;-67
2023/09/26 09:45:34;;;;;;;35.28;17.77;;;;;;;;;;5135791;27;20101;-70
2023/09/26 09:48:03;;;;;;;40.13;18.30;;;;;;;;;;5117299;27;20050;-66
2023/09/26 09:50:31;;;;;;;34.13;17.55;;;;;;;;;;5135446;27;20096;-67
2023/09/26 09:53:02;;;;;;;37.38;17.88;;;;;;;;;;5135506;27;20050;-66
2023/09/26 09:55:38;;;;;;;34.40;16.70;;;;;;;;;;5135679;27;20070;-67
2023/09/26 09:58:08;;;;;;;33.95;16.17;;;;;;;;;;5135474;27;20055;-66
2023/09/26 10:00:36;;;;;;;43.58;17.23;;;;;;;;;;5135164;27;20039;-67
2023/09/26 10:03:04;;;;;;;35.63;16.65;;;;;;;;;;5116956;27;20041;-67
2023/09/26 10:05:31;;;;;;;35.35;17.38;;;;;;;;;;5135287;27;20101;-67
2023/09/26 10:07:58;;;;;;;34.22;16.65;;;;;;;;;;5117025;27;20057;-66
2023/09/26 10:10:25;;;;;;;40.53;17.23;;;;;;;;;;5134970;27;20402;-66
2023/09/26 10:12:51;;;;;;;35.28;17.30;;;;;;;;;;5117750;27;20091;-67
2023/09/26 10:15:17;;;;;;;35.45;16.75;;;;;;;;;;5134954;27;20047;-66
2023/09/26 10:17:45;;;;;;;38.60;18.73;;;;;;;;;;5135054;27;20094;-68
2023/09/26 10:20:12;;;;;;;39.20;17.98;;;;;;;;;;5135190;27;20043;-68
2023/09/26 10:22:43;;;;;;;39.88;19.00;;;;;;;;;;5134807;27;20050;-66
2023/09/26 10:25:15;;;;;;;38.65;18.25;;;;;;;;;;5134934;27;20074;-66
2023/09/26 10:27:43;;;;;;;40.78;17.52;;;;;;;;;;5135567;27;20062;-68
2023/09/26 10:30:13;;;;;;;37.13;17.02;;;;;;;;;;5134812;27;20047;-67
2023/09/26 10:32:41;;;;;;;42.17;17.38;;;;;;;;;;5099432;27;20047;-66
2023/09/26 10:35:16;;;;;;;37.85;16.65;;;;;;;;;;5134787;27;20078;-68
2023/09/26 10:37:45;;;;;;;36.70;17.27;;;;;;;;;;5134593;27;20072;-66
2023/09/26 10:40:16;;;;;;;37.35;17.05;;;;;;;;;;5134462;27;20406;-66
2023/09/26 10:42:43;;;;;;;34.70;17.23;;;;;;;;;;5116521;27;20091;-67
2023/09/26 10:45:12;;;;;;;41.00;17.65;;;;;;;;;;5134596;27;20052;-67
2023/09/26 10:47:40;;;;;;;40.25;17.80;;;;;;;;;;5134768;27;20047;-68
2023/09/26 10:50:08;;;;;;;38.33;18.10;;;;;;;;;;5134154;27;20486;-68
2023/09/26 10:52:34;;;;;;;34.83;18.08;;;;;;;;;;5116210;28;20043;-67
2023/09/26 10:55:01;;;;;;;40.50;19.10;;;;;;;;;;5134561;27;20047;-67
2023/09/26 10:57:27;;;;;;;48.28;18.20;;;;;;;;;;5134386;27;20100;-70
2023/09/26 10:59:54;;;;;;;38.10;17.10;;;;;;;;;;5134859;27;20095;-68
2023/09/26 11:02:22;;;;;;;34.83;17.45;;;;;;;;;;5116151;28;20325;-69
2023/09/26 11:04:48;;;;;;;40.97;18.08;;;;;;;;;;5134259;27;20047;-66
2023/09/26 11:07:15;;;;;;;36.17;18.10;;;;;;;;;;5134287;28;20043;-66
2023/09/26 11:09:42;;;;;;;40.53;18.25;;;;;;;;;;5134106;28;20043;-68
2023/09/26 11:12:09;;;;;;;42.58;19.23;;;;;;;;;;5098870;28;20493;-67
2023/09/26 11:14:35;;;;;;;46.50;19.27;;;;;;;;;;5116245;28;20467;-68
2023/09/26 11:17:04;;;;;;;38.95;17.35;;;;;;;;;;5134266;28;20090;-67
2023/09/26 11:19:30;;;;;;;43.83;24.67;;;;;;;;;;5099703;28;20051;-67
2023/09/26 11:21:57;;;;;;;42.22;23.00;;;;;;;;;;5134074;28;20542;-67
2023/09/26 11:24:25;;;;;;;55.53;28.73;;;;;;;;;;5115620;28;20043;-67
2023/09/26 11:26:51;;;;;;;44.28;20.80;;;;;;;;;;5134418;28;20136;-67
2023/09/26 11:29:20;;;;;;;45.50;21.08;;;;;;;;;;5134203;28;20063;-68
2023/09/26 11:31:47;;;;;;;73.15;25.83;;;;;;;;;;5134285;28;20260;-67
2023/09/26 11:34:16;;;;;;;59.08;24.75;;;;;;;;;;5133892;28;20077;-67
2023/09/26 11:36:43;;;;;;;86.18;50.67;;;;;;;;;;5133668;28;20495;-68
2023/09/26 11:39:14;;;;;;;45.20;20.92;;;;;;;;;;5117685;27;20047;-69
2023/09/26 11:41:40;;;;;;;177.10;33.70;;;;;;;;;;5137909;27;20051;-68
2023/09/26 11:44:13;;;;;;;49.05;21.42;;;;;;;;;;5119587;27;20163;-67
2023/09/26 11:46:43;;;;;;;43.83;20.90;;;;;;;;;;5137952;27;20046;-68
2023/09/26 11:49:09;;;;;;;44.50;21.35;;;;;;;;;;5139281;27;20096;-67
2023/09/26 11:51:36;;;;;;;44.55;21.23;;;;;;;;;;5137887;27;20058;-68
2023/09/26 11:54:02;;;;;;;45.45;21.83;;;;;;;;;;5137394;27;20491;-67
2023/09/26 11:56:29;;;;;;;44.03;22.90;;;;;;;;;;5119483;27;20043;-71
2023/09/26 11:58:55;;;;;;;48.58;24.17;;;;;;;;;;5138212;27;20043;-67
2023/09/26 12:01:21;;;;;;;49.83;24.75;;;;;;;;;;5137746;27;20096;-68
2023/09/26 12:03:47;;;;;;;49.30;22.92;;;;;;;;;;5138020;27;20104;-67
2023/09/26 12:06:13;;;;;;;48.35;22.15;;;;;;;;;;5137453;27;20062;-68
2023/09/26 12:08:40;;;;;;;53.25;22.85;;;;;;;;;;5102613;27;20054;-68
2023/09/26 12:11:06;;;;;;;49.80;21.67;;;;;;;;;;5137557;27;20051;-68
2023/09/26 12:13:32;;;;;;;51.92;23.10;;;;;;;;;;5137941;27;20047;-72
2023/09/26 12:15:59;;;;;;;45.80;22.63;;;;;;;;;;5119463;27;20051;-67
2023/09/26 12:18:25;;;;;;;50.22;22.02;;;;;;;;;;5138215;27;20173;-68
2023/09/26 12:20:55;;;;;;;48.90;21.90;;;;;;;;;;5102230;27;20047;-68
2023/09/26 12:23:21;;;;;;;48.40;23.50;;;;;;;;;;5137588;27;20407;-68
2023/09/26 12:25:51;;;;;;;49.53;22.95;;;;;;;;;;5137000;27;20101;-69
2023/09/26 12:28:17;;;;;;;49.88;23.25;;;;;;;;;;5136971;27;20486;-69
2023/09/26 12:30:43;;;;;;;53.55;22.75;;;;;;;;;;5137144;27;20050;-68
2023/09/26 12:33:09;;;;;;;48.28;22.15;;;;;;;;;;5119362;27;20061;-68
2023/09/26 12:35:36;;;;;;;47.42;23.83;;;;;;;;;;5101885;27;20051;-71
2023/09/26 12:38:02;;;;;;;50.58;22.83;;;;;;;;;;5118758;27;20043;-67
2023/09/26 12:40:28;;;;;;;49.80;22.17;;;;;;;;;;5118924;27;20390;-67
2023/09/26 12:42:54;;;;;;;45.58;20.95;;;;;;;;;;5137319;27;20375;-68
2023/09/26 12:45:20;;;;;;;49.88;20.85;;;;;;;;;;5137242;27;20050;-65
2023/09/26 12:47:46;;;;;;;49.33;20.05;;;;;;;;;;5136680;27;20043;-67
2023/09/26 12:50:13;;;;;;;43.17;19.60;;;;;;;;;;5136582;27;20103;-67
2023/09/26 12:52:40;;;;;;;50.55;19.00;;;;;;;;;;5118410;27;20452;-69
2023/09/26 12:55:06;;;;;;;;;;;;;;;;;;5119408;27;20039;-67
2023/09/26 12:57:33;;;;;;;48.47;21.10;;;;;;;;;;5137111;27;19926;-68
2023/09/26 12:59:59;;;;;;;43.40;20.17;;;;;;;;;;5136587;27;20081;-67
2023/09/26 13:02:25;;;;;;;43.53;19.92;;;;;;;;;;5137028;27;20046;-67
2023/09/26 13:04:52;;;;;;;45.63;20.58;;;;;;;;;;5136347;27;20046;-68
2023/09/26 13:07:18;;;;;;;49.63;20.35;;;;;;;;;;5136446;27;20055;-67
2023/09/26 13:09:45;;;;;;;48.38;20.95;;;;;;;;;;5136364;27;20050;-68
2023/09/26 13:12:11;;;;;;;47.45;21.33;;;;;;;;;;5136190;27;20078;-68
2023/09/26 13:14:37;;;;;;;57.50;22.42;;;;;;;;;;5136330;27;20088;-67
2023/09/26 13:17:05;;;;;;;53.13;22.63;;;;;;;;;;5136164;27;20538;-68
2023/09/26 13:19:31;;;;;;;50.60;21.00;;;;;;;;;;5136914;27;20123;-67
2023/09/26 13:21:58;;;;;;;49.95;20.20;;;;;;;;;;5136007;27;20399;-68
2023/09/26 13:24:24;;;;;;;53.03;20.65;;;;;;;;;;5135975;27;20050;-68
2023/09/26 13:26:50;;;;;;;49.83;21.40;;;;;;;;;;5135968;27;20115;-68
2023/09/26 13:29:19;;;;;;;47.30;21.33;;;;;;;;;;5117791;27;20087;-68
2023/09/26 13:31:46;;;;;;;56.85;23.30;;;;;;;;;;5135591;27;20490;-68
2023/09/26 13:34:15;;;;;;;51.10;22.45;;;;;;;;;;5135888;27;20047;-68
2023/09/26 13:36:41;;;;;;;51.40;22.23;;;;;;;;;;5117675;27;20047;-68
2023/09/26 13:39:08;;;;;;;58.33;22.70;;;;;;;;;;5117603;27;20103;-68
2023/09/26 13:41:34;;;;;;;;;;;;;;;;;;5137257;27;20093;-68
2023/09/26 13:44:00;;;;;;;47.92;19.17;;;;;;;;;;5135595;27;20035;-67
2023/09/26 13:46:26;;;;;;;47.78;20.08;;;;;;;;;;5117256;27;20047;-67
2023/09/26 13:48:52;;;;;;;48.03;21.05;;;;;;;;;;5117267;27;20054;-67
2023/09/26 13:51:18;;;;;;;43.85;19.92;;;;;;;;;;5135814;27;20441;-66
2023/09/26 13:53:44;;;;;;;45.85;18.55;;;;;;;;;;5117672;27;20075;-68
2023/09/26 13:56:11;;;;;;;41.72;18.98;;;;;;;;;;5135672;27;20516;-67
2023/09/26 13:58:37;;;;;;;46.60;18.25;;;;;;;;;;5135345;27;20050;-67
2023/09/26 14:01:04;;;;;;;54.00;18.10;;;;;;;;;;5135729;27;20043;-68
2023/09/26 14:03:31;;;;;;;39.85;17.95;;;;;;;;;;5134677;27;20391;-68
2023/09/26 14:05:57;;;;;;;;;;;;;;;;;;5135532;27;20126;-68
2023/09/26 14:08:23;;;;;;;36.03;15.98;;;;;;;;;;5134939;27;20405;-67
2023/09/26 14:10:49;;;;;;;36.75;16.23;;;;;;;;;;5134969;27;20479;-71
2023/09/26 14:13:15;;;;;;;38.10;16.77;;;;;;;;;;5135162;27;20050;-68
2023/09/26 14:15:43;;;;;;;38.67;16.20;;;;;;;;;;5117752;27;20043;-67
2023/09/26 14:18:10;;;;;;;43.42;18.38;;;;;;;;;;5117133;27;20043;-68
2023/09/26 14:20:36;;;;;;;49.63;18.38;;;;;;;;;;5135500;27;20051;-68